createdAt,value
2022-09-02T00:01:27.653Z,100583.41
2022-09-02T00:04:00.319Z,100590.91
2022-09-02T00:06:28.153Z,100588.44
2022-09-02T00:08:55.717Z,100583.16
2022-09-02T00:11:27.512Z,100579.44
2022-09-02T00:13:57.285Z,100578.31
2022-09-02T00:16:25.310Z,100580.91
2022-09-02T00:18:53.529Z,100582.41
2022-09-02T00:21:21.337Z,100581.59
2022-09-02T00:23:49.183Z,100586.81
2022-09-02T00:26:16.551Z,100576.81
2022-09-02T00:28:51.213Z,100579.44
2022-09-02T00:31:27.652Z,100582.44
2022-09-02T00:33:55.314Z,100572.28
2022-09-02T00:36:22.083Z,100570.47
2022-09-02T00:38:48.817Z,100577.56
2022-09-02T00:41:15.594Z,100572.69
2022-09-02T00:44:05.039Z,100567.22
2022-09-02T00:46:33.651Z,100567.13
2022-09-02T00:49:14.204Z,100560.03
2022-09-02T00:52:03.983Z,100562.16
2022-09-02T00:54:34.569Z,100553.94
2022-09-02T00:57:06.250Z,100556.81
2022-09-02T00:59:58.634Z,100557.63
2022-09-02T01:02:31.624Z,100556.28
2022-09-02T01:05:04.002Z,100562.38
2022-09-02T01:07:34.400Z,100556.28
2022-09-02T01:10:02.463Z,100553.56
2022-09-02T01:12:32.295Z,100554.81
2022-09-02T01:14:59.435Z,100557.09
2022-09-02T01:17:26.758Z,100552.28
2022-09-02T01:20:00.184Z,100546.03
2022-09-02T01:22:31.189Z,100548.41
2022-09-02T01:25:04.907Z,100550.81
2022-09-02T01:27:31.938Z,100556.97
2022-09-02T01:30:00.190Z,100547.47
2022-09-02T01:32:29.125Z,100553.22
2022-09-02T01:34:55.868Z,100548.06
2022-09-02T01:37:22.671Z,100551.19
2022-09-02T01:39:49.826Z,100543.16
2022-09-02T01:42:16.544Z,100553.25
2022-09-02T01:44:46.134Z,100546.00
2022-09-02T01:47:16.993Z,100556.34
2022-09-02T01:49:46.543Z,100546.22
2022-09-02T01:52:14.736Z,100544.59
2022-09-02T01:54:41.582Z,100543.78
2022-09-02T01:57:08.956Z,100552.56
2022-09-02T01:59:35.681Z,100541.72
2022-09-02T02:02:03.571Z,100536.66
2022-09-02T02:04:31.246Z,100553.13
2022-09-02T02:06:58.133Z,100546.78
2022-09-02T02:09:25.353Z,100550.00
2022-09-02T02:11:53.439Z,100546.47
2022-09-02T02:14:20.629Z,100542.72
2022-09-02T02:16:50.705Z,100540.72
2022-09-02T02:19:18.210Z,100545.75
2022-09-02T02:21:44.961Z,100537.69
2022-09-02T02:24:11.872Z,100542.34
2022-09-02T02:26:38.696Z,100547.28
2022-09-02T02:29:06.516Z,100549.19
2022-09-02T02:31:33.676Z,100544.63
2022-09-02T02:34:00.405Z,100542.72
2022-09-02T02:36:27.354Z,100544.63
2022-09-02T02:38:55.002Z,100543.47
2022-09-02T02:41:22.007Z,100543.53
2022-09-02T02:43:49.710Z,100537.41
2022-09-02T02:46:16.731Z,100542.84
2022-09-02T02:48:43.523Z,100535.31
2022-09-02T02:51:10.662Z,100536.66
2022-09-02T02:53:38.369Z,100538.63
2022-09-02T02:56:06.166Z,100540.91
2022-09-02T02:58:33.058Z,100533.34
2022-09-02T03:01:01.799Z,100533.84
2022-09-02T03:03:29.708Z,100533.53
2022-09-02T03:05:58.043Z,100532.66
2022-09-02T03:08:28.099Z,100526.47
2022-09-02T03:10:56.194Z,100531.59
2022-09-02T03:13:29.396Z,100533.53
2022-09-02T03:16:00.277Z,100533.97
2022-09-02T03:18:27.214Z,100528.50
2022-09-02T03:20:53.918Z,100530.66
2022-09-02T03:23:20.849Z,100532.47
2022-09-02T03:25:50.427Z,100533.69
2022-09-02T03:28:26.691Z,100533.69
2022-09-02T03:30:54.165Z,100532.44
2022-09-02T03:33:22.513Z,100533.47
2022-09-02T03:35:49.403Z,100526.78
2022-09-02T03:38:16.133Z,100529.38
2022-09-02T03:40:44.824Z,100534.78
2022-09-02T03:43:11.786Z,100532.38
2022-09-02T03:45:41.680Z,100532.75
2022-09-02T03:48:13.322Z,100529.84
2022-09-02T03:50:43.880Z,100525.56
2022-09-02T03:53:18.330Z,100530.94
2022-09-02T03:55:49.472Z,100530.75
2022-09-02T03:58:18.252Z,100522.84
2022-09-02T04:00:52.061Z,100519.00
2022-09-02T04:03:20.791Z,100530.34
2022-09-02T04:05:50.678Z,100528.13
2022-09-02T04:08:19.112Z,100523.78
2022-09-02T04:10:46.537Z,100527.31
2022-09-02T04:13:13.593Z,100522.56
2022-09-02T04:15:44.253Z,100523.47
2022-09-02T04:18:12.296Z,100529.44
2022-09-02T04:20:40.343Z,100524.66
2022-09-02T04:23:08.099Z,100526.47
2022-09-02T04:25:40.711Z,100532.44
2022-09-02T04:28:08.484Z,100523.75
2022-09-02T04:30:38.658Z,100524.78
2022-09-02T04:33:06.222Z,100531.25
2022-09-02T04:35:35.327Z,100528.53
2022-09-02T04:38:03.306Z,100530.47
2022-09-02T04:40:31.451Z,100530.66
2022-09-02T04:42:59.390Z,100531.16
2022-09-02T04:45:29.777Z,100536.53
2022-09-02T04:47:57.613Z,100528.38
2022-09-02T04:50:24.833Z,100542.59
2022-09-02T04:53:10.027Z,100535.41
2022-09-02T04:55:40.735Z,100535.50
2022-09-02T04:58:10.594Z,100533.44
2022-09-02T05:00:39.727Z,100531.34
2022-09-02T05:03:11.726Z,100537.84
2022-09-02T05:05:40.559Z,100529.97
2022-09-02T05:08:10.021Z,100528.78
2022-09-02T05:10:39.977Z,100532.22
2022-09-02T05:13:06.923Z,100539.78
2022-09-02T05:15:38.437Z,100541.41
2022-09-02T05:18:07.554Z,100544.25
2022-09-02T05:20:34.341Z,100538.69
2022-09-02T05:23:02.073Z,100539.91
2022-09-02T05:25:28.786Z,100543.53
2022-09-02T05:27:56.025Z,100541.78
2022-09-02T05:30:24.276Z,100540.50
2022-09-02T05:32:51.802Z,100543.81
2022-09-02T05:35:18.728Z,100551.19
2022-09-02T05:37:45.605Z,100541.88
2022-09-02T05:40:14.792Z,100553.94
2022-09-02T05:42:43.560Z,100547.28
2022-09-02T05:45:11.921Z,100545.84
2022-09-02T05:47:43.386Z,100545.56
2022-09-02T05:50:10.725Z,100546.91
2022-09-02T05:52:43.097Z,100535.97
2022-09-02T05:55:10.065Z,100542.00
2022-09-02T05:57:38.971Z,100539.16
2022-09-02T06:00:08.767Z,100545.81
2022-09-02T06:02:43.807Z,100547.78
2022-09-02T06:05:20.441Z,100541.38
2022-09-02T06:07:54.359Z,100542.47
2022-09-02T06:10:22.975Z,100540.25
2022-09-02T06:12:50.347Z,100540.88
2022-09-02T06:15:20.441Z,100537.34
2022-09-02T06:17:48.286Z,100536.53
2022-09-02T06:20:16.039Z,100541.56
2022-09-02T06:22:44.247Z,100543.06
2022-09-02T06:25:11.896Z,100534.50
2022-09-02T06:27:40.548Z,100536.47
2022-09-02T06:30:09.189Z,100540.72
2022-09-02T06:32:35.876Z,100540.78
2022-09-02T06:35:08.151Z,100540.59
2022-09-02T06:37:35.646Z,100536.16
2022-09-02T06:40:04.829Z,100533.59
2022-09-02T06:42:32.555Z,100536.41
2022-09-02T06:45:25.913Z,100531.19
2022-09-02T06:47:55.315Z,100532.38
2022-09-02T06:50:22.380Z,100529.31
2022-09-02T06:52:49.900Z,100536.16
2022-09-02T06:55:18.097Z,100532.75
2022-09-02T06:57:44.844Z,100535.22
2022-09-02T07:00:13.794Z,100535.31
2022-09-02T07:02:42.877Z,100535.69
2022-09-02T07:05:10.434Z,100537.22
2022-09-02T07:07:39.798Z,100537.31
2022-09-02T07:10:13.411Z,100540.31
2022-09-02T07:12:44.611Z,100534.03
2022-09-02T07:15:14.703Z,100535.78
2022-09-02T07:17:42.980Z,100537.44
2022-09-02T07:20:15.433Z,100535.78
2022-09-02T07:22:47.203Z,100530.91
2022-09-02T07:25:17.144Z,100536.59
2022-09-02T07:27:44.580Z,100537.19
2022-09-02T07:30:12.921Z,100533.75
2022-09-02T07:32:42.798Z,100535.47
2022-09-02T07:35:10.866Z,100531.53
2022-09-02T07:37:42.007Z,100531.56
2022-09-02T07:40:11.526Z,100526.50
2022-09-02T07:42:39.213Z,100523.84
2022-09-02T07:45:07.184Z,100529.09
2022-09-02T07:47:35.661Z,100529.28
2022-09-02T07:50:22.174Z,100526.44
2022-09-02T07:52:58.538Z,100531.63
2022-09-02T07:55:31.152Z,100526.63
2022-09-02T07:57:59.585Z,100524.78
2022-09-02T08:00:27.767Z,100530.66
2022-09-02T08:02:58.554Z,100525.84
2022-09-02T08:05:32.493Z,100521.16
2022-09-02T08:08:00.456Z,100527.94
2022-09-02T08:10:29.704Z,100530.53
2022-09-02T08:12:58.178Z,100531.97
2022-09-02T08:15:28.613Z,100527.94
2022-09-02T08:17:57.295Z,100528.72
2022-09-02T08:20:24.082Z,100520.06
2022-09-02T08:23:00.822Z,100533.59
2022-09-02T08:25:37.693Z,100532.47
2022-09-02T08:28:05.030Z,100524.88
2022-09-02T08:30:31.992Z,100526.81
2022-09-02T08:32:58.697Z,100523.78
2022-09-02T08:35:26.006Z,100527.63
2022-09-02T08:37:53.093Z,100523.28
2022-09-02T08:40:27.948Z,100516.31
2022-09-02T08:42:56.532Z,100518.53
2022-09-02T08:45:39.058Z,100520.41
2022-09-02T08:48:21.303Z,100515.88
2022-09-02T08:50:52.735Z,100517.53
2022-09-02T08:53:36.153Z,100514.34
2022-09-02T08:56:06.390Z,100512.31
2022-09-02T08:58:47.120Z,100515.22
2022-09-02T09:01:18.312Z,100518.34
2022-09-02T09:04:11.451Z,100514.25
2022-09-02T09:07:08.482Z,100503.47
2022-09-02T09:09:49.479Z,100506.94
2022-09-02T09:12:31.411Z,100511.09
2022-09-02T09:15:11.613Z,100493.81
2022-09-02T09:17:51.626Z,100492.63
2022-09-02T09:20:20.554Z,100495.84
2022-09-02T09:22:49.650Z,100496.97
2022-09-02T09:25:20.370Z,100503.75
2022-09-02T09:27:47.125Z,100497.00
2022-09-02T09:30:15.496Z,100493.88
2022-09-02T09:32:49.407Z,100501.84
2022-09-02T09:35:18.006Z,100496.41
2022-09-02T09:37:50.077Z,100493.78
2022-09-02T09:40:23.291Z,100488.06
2022-09-02T09:42:55.240Z,100484.38
2022-09-02T09:45:32.936Z,100483.25
2022-09-02T09:48:38.274Z,100476.81
2022-09-02T09:51:04.829Z,100470.63
2022-09-02T09:53:34.091Z,100475.81
2022-09-02T09:56:23.454Z,100469.13
2022-09-02T09:58:51.243Z,100466.94
2022-09-02T10:01:24.226Z,100466.53
2022-09-02T10:04:32.405Z,100465.19
2022-09-02T10:06:55.198Z,100465.06
2022-09-02T10:09:31.712Z,100466.25
2022-09-02T10:12:07.507Z,100465.69
2022-09-02T10:14:44.441Z,100464.28
2022-09-02T10:17:40.411Z,100471.34
2022-09-02T10:20:13.051Z,100452.81
2022-09-02T10:23:02.589Z,100465.69
2022-09-02T10:25:42.563Z,100442.41
2022-09-02T10:28:27.644Z,100451.59
2022-09-02T10:31:07.866Z,100448.09
2022-09-02T10:33:57.310Z,100447.66
2022-09-02T10:36:41.938Z,100443.53
2022-09-02T10:39:27.295Z,100435.94
2022-09-02T10:42:03.513Z,100442.41
2022-09-02T10:44:33.972Z,100439.50
2022-09-02T10:47:20.908Z,100436.41
2022-09-02T10:50:07.788Z,100431.44
2022-09-02T10:52:53.659Z,100424.00
2022-09-02T10:56:00.364Z,100437.41
2022-09-02T10:58:38.135Z,100422.59
2022-09-02T11:01:07.299Z,100414.16
2022-09-02T11:03:41.796Z,100409.41
2022-09-02T11:06:18.807Z,100408.03
2022-09-02T11:09:02.699Z,100400.22
2022-09-02T11:11:46.867Z,100399.44
2022-09-02T11:14:22.550Z,100394.59
2022-09-02T11:17:14.898Z,100393.19
2022-09-02T11:19:55.624Z,100383.25
2022-09-02T11:22:39.337Z,100386.16
2022-09-02T11:25:15.481Z,100379.25
2022-09-02T11:27:48.971Z,100379.97
2022-09-02T11:30:21.562Z,100379.47
2022-09-02T11:32:55.558Z,100372.13
2022-09-02T11:35:28.890Z,100375.03
2022-09-02T11:38:07.569Z,100370.47
2022-09-02T11:40:43.113Z,100368.25
2022-09-02T11:43:49.430Z,100366.13
2022-09-02T11:46:54.993Z,100371.34
2022-09-02T11:49:37.146Z,100367.19
2022-09-02T11:52:03.699Z,100355.06
2022-09-02T11:55:02.766Z,100359.47
2022-09-02T11:57:32.883Z,100366.59
2022-09-02T11:59:59.429Z,100358.59
2022-09-02T12:02:41.098Z,100362.75
2022-09-02T12:05:32.499Z,100358.56
2022-09-02T12:08:28.631Z,100364.88
2022-09-02T12:10:59.999Z,100352.56
2022-09-02T12:13:43.423Z,100353.81
2022-09-02T12:16:15.433Z,100358.28
2022-09-02T12:19:07.279Z,100350.53
2022-09-02T12:21:39.280Z,100347.44
2022-09-02T12:24:10.398Z,100348.38
2022-09-02T12:26:37.528Z,100340.66
2022-09-02T12:29:31.317Z,100335.25
2022-09-02T12:31:58.903Z,100333.16
2022-09-02T12:34:25.517Z,100326.00
2022-09-02T12:36:57.138Z,100324.28
2022-09-02T12:39:30.484Z,100320.84
2022-09-02T12:42:07.774Z,100320.09
2022-09-02T12:44:56.305Z,100325.72
2022-09-02T12:47:41.471Z,100316.75
2022-09-02T12:50:20.838Z,100313.13
2022-09-02T12:52:49.511Z,100302.94
2022-09-02T12:55:28.638Z,100303.09
2022-09-02T12:58:16.828Z,100301.41
2022-09-02T13:00:46.385Z,100302.03
2022-09-02T13:03:35.481Z,100295.72
2022-09-02T13:06:08.147Z,100308.19
2022-09-02T13:09:01.390Z,100297.97
2022-09-02T13:11:46.585Z,100292.97
2022-09-02T13:14:28.132Z,100283.00
2022-09-02T13:20:39.126Z,100274.72
2022-09-02T13:23:14.982Z,100285.41
2022-09-02T13:26:08.791Z,100279.41
2022-09-02T13:29:13.224Z,100264.72
2022-09-02T13:31:40.276Z,100260.13
2022-09-02T13:34:13.875Z,100260.34
2022-09-02T13:36:45.298Z,100260.47
2022-09-02T13:39:19.034Z,100261.47
2022-09-02T13:41:46.098Z,100250.63
2022-09-02T13:44:29.494Z,100244.31
2022-09-02T13:47:20.702Z,100250.41
2022-09-02T13:49:51.163Z,100242.13
2022-09-02T13:52:51.129Z,100239.88
2022-09-02T13:55:13.946Z,100232.19
2022-09-02T13:57:45.959Z,100232.50
2022-09-02T14:00:17.011Z,100229.75
2022-09-02T14:02:57.421Z,100224.41
2022-09-02T14:05:25.527Z,100208.53
2022-09-02T14:07:56.530Z,100213.06
2022-09-02T14:10:27.144Z,100214.44
2022-09-02T14:12:56.342Z,100209.31
2022-09-02T14:15:29.622Z,100205.50
2022-09-02T14:18:18.396Z,100204.50
2022-09-02T14:21:10.763Z,100191.16
2022-09-02T14:23:47.722Z,100192.13
2022-09-02T14:26:23.862Z,100188.75
2022-09-02T14:28:52.281Z,100184.69
2022-09-02T14:31:30.634Z,100180.94
2022-09-02T14:33:58.253Z,100179.13
2022-09-02T14:36:29.755Z,100174.84
2022-09-02T14:39:07.576Z,100179.75
2022-09-02T14:41:38.371Z,100170.75
2022-09-02T14:44:12.293Z,100168.84
2022-09-02T14:46:55.754Z,100177.81
2022-09-02T14:49:39.819Z,100162.75
2022-09-02T14:52:18.037Z,100166.00
2022-09-02T14:54:48.509Z,100159.19
2022-09-02T14:57:24.312Z,100143.25
2022-09-02T14:59:52.859Z,100152.31
2022-09-02T15:02:28.580Z,100153.13
2022-09-02T15:04:57.342Z,100155.88
2022-09-02T15:07:25.242Z,100147.72
2022-09-02T15:09:52.540Z,100144.72
2022-09-02T15:12:32.977Z,100149.16
2022-09-02T15:15:00.243Z,100147.56
2022-09-02T15:17:29.427Z,100142.28
2022-09-02T15:19:56.684Z,100138.25
2022-09-02T15:22:24.051Z,100134.00
2022-09-02T15:24:51.998Z,100137.72
2022-09-02T15:27:20.220Z,100144.06
2022-09-02T15:29:49.277Z,100137.22
2022-09-02T15:32:16.325Z,100132.72
2022-09-02T15:34:43.567Z,100140.81
2022-09-02T15:37:13.037Z,100136.25
2022-09-02T15:39:40.661Z,100135.94
2022-09-02T15:42:07.522Z,100138.41
2022-09-02T15:44:34.194Z,100128.69
2022-09-02T15:47:00.852Z,100142.53
2022-09-02T15:49:27.749Z,100124.41
2022-09-02T15:51:55.122Z,100121.59
2022-09-02T15:54:23.692Z,100126.00
2022-09-02T15:56:55.472Z,100125.69
2022-09-02T15:59:22.548Z,100132.72
2022-09-02T16:01:55.444Z,100129.91
2022-09-02T16:04:23.351Z,100132.31
2022-09-02T16:06:54.751Z,100123.34
2022-09-02T16:09:22.212Z,100133.03
2022-09-02T16:11:52.273Z,100138.78
2022-09-02T16:14:21.293Z,100140.69
2022-09-02T16:16:49.946Z,100137.06
2022-09-02T16:19:21.253Z,100141.31
2022-09-02T16:21:49.366Z,100141.66
2022-09-02T16:24:16.149Z,100136.97
2022-09-02T16:26:42.920Z,100127.84
2022-09-02T16:29:15.910Z,100128.19
2022-09-02T16:31:45.880Z,100134.00
2022-09-02T16:34:24.028Z,100126.53
2022-09-02T16:36:51.203Z,100125.19
2022-09-02T16:39:18.572Z,100127.59
2022-09-02T16:41:51.529Z,100124.19
2022-09-02T16:44:20.643Z,100127.19
2022-09-02T16:46:49.387Z,100130.19
2022-09-02T16:49:18.381Z,100123.88
2022-09-02T16:51:52.509Z,100131.88
2022-09-02T16:54:30.763Z,100124.06
2022-09-02T16:57:00.122Z,100117.78
2022-09-02T16:59:27.301Z,100109.78
2022-09-02T17:01:54.100Z,100116.09
2022-09-02T17:04:20.860Z,100119.66
2022-09-02T17:06:47.667Z,100121.50
2022-09-02T17:09:14.447Z,100119.09
2022-09-02T17:11:42.495Z,100122.19
2022-09-02T17:14:16.315Z,100111.75
2022-09-02T17:16:48.883Z,100115.41
2022-09-02T17:19:21.429Z,100120.47
2022-09-02T17:21:53.811Z,100106.97
2022-09-02T17:24:23.979Z,100116.13
2022-09-02T17:26:55.483Z,100119.34
2022-09-02T17:29:47.989Z,100118.75
2022-09-02T17:32:10.650Z,100117.97
2022-09-02T17:34:37.553Z,100116.38
2022-09-02T17:37:05.189Z,100117.97
2022-09-02T17:39:33.790Z,100118.41
2022-09-02T17:42:01.771Z,100106.97
2022-09-02T17:44:36.173Z,100102.06
2022-09-02T17:47:20.727Z,100101.72
2022-09-02T17:49:48.672Z,100097.78
2022-09-02T17:52:18.572Z,100099.03
2022-09-02T17:54:48.461Z,100094.25
2022-09-02T17:57:23.577Z,100095.72
2022-09-02T18:00:02.631Z,100100.63
2022-09-02T18:02:35.608Z,100086.78
2022-09-02T18:05:04.389Z,100093.22
2022-09-02T18:08:18.076Z,100092.88
2022-09-02T18:10:57.758Z,100100.75
2022-09-02T18:13:54.421Z,100090.13
2022-09-02T18:16:51.537Z,100093.41
2022-09-02T18:19:36.705Z,100101.44
2022-09-02T18:22:28.053Z,100106.13
2022-09-02T18:25:33.481Z,100107.13
2022-09-02T18:28:03.238Z,100105.06
2022-09-02T18:30:45.673Z,100106.63
2022-09-02T18:33:25.873Z,100109.56
2022-09-02T18:36:29.378Z,100102.28
2022-09-02T18:39:02.185Z,100100.47
2022-09-02T18:41:56.741Z,100098.13
2022-09-02T18:44:29.240Z,100100.47
2022-09-02T18:47:05.137Z,100107.00
2022-09-02T18:49:36.537Z,100111.47
2022-09-02T18:52:06.603Z,100110.25
2022-09-02T18:54:47.186Z,100110.94
2022-09-02T18:57:14.767Z,100114.59
2022-09-02T18:59:55.089Z,100120.97
2022-09-02T19:02:32.745Z,100121.66
2022-09-02T19:05:01.385Z,100123.25
2022-09-02T19:07:50.101Z,100114.00
2022-09-02T19:10:16.844Z,100120.84
2022-09-02T19:12:44.276Z,100127.41
2022-09-02T19:15:13.089Z,100125.53
2022-09-02T19:17:40.504Z,100127.94
2022-09-02T19:20:09.006Z,100134.00
2022-09-02T19:22:43.121Z,100129.41
2022-09-02T19:25:15.365Z,100133.31
2022-09-02T19:27:44.335Z,100131.03
2022-09-02T19:30:18.657Z,100130.84
2022-09-02T19:32:47.742Z,100141.28
2022-09-02T19:35:17.242Z,100137.47
2022-09-02T19:37:46.896Z,100139.84
2022-09-02T19:40:28.065Z,100140.63
2022-09-02T19:42:55.113Z,100144.97
2022-09-02T19:45:22.900Z,100133.56
2022-09-02T19:48:06.471Z,100135.31
2022-09-02T19:50:37.220Z,100140.97
2022-09-02T19:53:04.092Z,100136.03
2022-09-02T19:55:33.521Z,100131.41
2022-09-02T19:58:00.298Z,100131.59
2022-09-02T20:00:27.878Z,100135.50
2022-09-02T20:02:55.270Z,100134.13
2022-09-02T20:05:24.369Z,100124.97
2022-09-02T20:07:51.780Z,100134.00
2022-09-02T20:10:20.389Z,100127.72
2022-09-02T20:12:51.843Z,100129.31
2022-09-02T20:15:20.536Z,100126.97
2022-09-02T20:17:47.344Z,100128.66
2022-09-02T20:20:22.720Z,100137.28
2022-09-02T20:22:57.415Z,100138.34
2022-09-02T20:25:36.705Z,100138.25
2022-09-02T20:28:23.022Z,100137.31
2022-09-02T20:30:58.071Z,100134.63
2022-09-02T20:33:34.900Z,100126.34
2022-09-02T20:36:06.600Z,100129.84
2022-09-02T20:39:19.720Z,100121.94
2022-09-02T20:42:19.741Z,100117.16
2022-09-02T20:45:02.324Z,100113.63
2022-09-02T20:47:49.308Z,100119.44
2022-09-02T20:50:36.268Z,100110.16
2022-09-02T20:53:17.759Z,100122.97
2022-09-02T20:56:01.784Z,100110.56
2022-09-02T20:58:42.472Z,100110.41
2022-09-02T21:01:21.744Z,100106.66
2022-09-02T21:04:07.286Z,100108.34
2022-09-02T21:06:40.169Z,100107.75
2022-09-02T21:09:12.577Z,100115.34
2022-09-02T21:11:53.260Z,100112.75
2022-09-02T21:14:28.601Z,100111.44
2022-09-02T21:17:03.825Z,100114.66
2022-09-02T21:19:41.493Z,100110.41
2022-09-02T21:22:19.687Z,100112.16
2022-09-02T21:24:57.470Z,100116.47
2022-09-02T21:27:35.386Z,100109.97
2022-09-02T21:30:07.999Z,100108.84
2022-09-02T21:32:38.807Z,100111.22
2022-09-02T21:35:10.832Z,100106.22
2022-09-02T21:37:39.873Z,100107.28
2022-09-02T21:40:11.352Z,100108.06
2022-09-02T21:43:05.593Z,100111.44
2022-09-02T21:45:55.169Z,100103.91
2022-09-02T21:48:32.145Z,100106.91
2022-09-02T21:51:01.709Z,100098.69
2022-09-02T21:54:04.145Z,100099.00
2022-09-02T21:56:40.025Z,100101.28
2022-09-02T21:59:12.436Z,100097.69
2022-09-02T22:01:59.579Z,100093.44
2022-09-02T22:04:44.721Z,100096.53
2022-09-02T22:07:19.201Z,100109.41
2022-09-02T22:09:52.780Z,100099.91
2022-09-02T22:12:19.954Z,100096.50
2022-09-02T22:14:56.101Z,100096.06
2022-09-02T22:17:51.600Z,100092.53
2022-09-02T22:20:22.203Z,100099.25
2022-09-02T22:23:00.011Z,100092.66
2022-09-02T22:25:29.621Z,100090.63
2022-09-02T22:28:04.900Z,100091.13
2022-09-02T22:30:35.917Z,100098.41
2022-09-02T22:33:11.792Z,100087.38
2022-09-02T22:35:58.530Z,100086.31
2022-09-02T22:38:41.999Z,100094.44
2022-09-02T22:41:41.532Z,100089.50
2022-09-02T22:44:17.057Z,100098.06
2022-09-02T22:47:14.124Z,100092.13
2022-09-02T22:50:05.432Z,100088.47
2022-09-02T22:52:46.376Z,100091.72
2022-09-02T22:55:26.833Z,100091.22
2022-09-02T22:58:30.826Z,100087.00
2022-09-02T23:01:03.994Z,100093.34
2022-09-02T23:04:05.720Z,100087.28
2022-09-02T23:06:32.952Z,100084.69
2022-09-02T23:09:09.239Z,100091.28
2022-09-02T23:11:41.961Z,100089.66
2022-09-02T23:14:27.636Z,100090.00
2022-09-02T23:17:20.426Z,100100.59
2022-09-02T23:20:02.795Z,100092.50
2022-09-02T23:23:12.009Z,100095.56
2022-09-02T23:25:55.023Z,100082.69
2022-09-02T23:28:38.330Z,100080.09
2022-09-02T23:31:26.954Z,100090.69
2022-09-02T23:34:30.927Z,100090.34
2022-09-02T23:37:10.227Z,100089.66
2022-09-02T23:40:02.864Z,100084.06
2022-09-02T23:42:30.720Z,100083.97
2022-09-02T23:45:02.749Z,100090.88
2022-09-02T23:47:42.998Z,100091.41
2022-09-02T23:50:25.064Z,100092.53
2022-09-02T23:52:58.750Z,100087.78
2022-09-02T23:55:48.673Z,100083.16
2022-09-02T23:58:18.547Z,100083.47
